sensor_id;sensor_type;location;lat;lon;timestamp;P1;durP1;ratioP1;P2;durP2;ratioP2
793;SDS011;380;48.738;9.214;2023-11-19T11:56:39;0.73;;;0.15;;
793;SDS011;380;48.738;9.214;2023-11-19T11:59:23;0.73;;;0.35;;
793;SDS011;380;48.738;9.214;2023-11-19T12:01:58;0.85;;;0.30;;
793;SDS011;380;48.738;9.214;2023-11-19T12:04:28;0.98;;;0.45;;
793;SDS011;380;48.738;9.214;2023-11-19T12:09:29;0.65;;;0.30;;
793;SDS011;380;48.738;9.214;2023-11-19T12:20:00;2.92;;;1.05;;
793;SDS011;380;48.738;9.214;2023-11-19T12:22:26;1.48;;;0.60;;
793;SDS011;380;48.738;9.214;2023-11-19T12:24:53;0.60;;;0.28;;
793;SDS011;380;48.738;9.214;2023-11-19T12:27:19;0.35;;;0.13;;
793;SDS011;380;48.738;9.214;2023-11-19T12:29:47;0.65;;;0.30;;
793;SDS011;380;48.738;9.214;2023-11-19T12:32:13;1.85;;;0.45;;
793;SDS011;380;48.738;9.214;2023-11-19T12:34:39;0.57;;;0.17;;
793;SDS011;380;48.738;9.214;2023-11-19T12:37:05;0.45;;;0.20;;
793;SDS011;380;48.738;9.214;2023-11-19T12:39:31;2.10;;;0.40;;
793;SDS011;380;48.738;9.214;2023-11-19T12:41:58;0.80;;;0.40;;
793;SDS011;380;48.738;9.214;2023-11-19T12:44:27;0.70;;;0.30;;
793;SDS011;380;48.738;9.214;2023-11-19T12:47:05;0.35;;;0.17;;
793;SDS011;380;48.738;9.214;2023-11-19T12:49:34;2.15;;;0.57;;
793;SDS011;380;48.738;9.214;2023-11-19T12:52:00;0.45;;;0.25;;
793;SDS011;380;48.738;9.214;2023-11-19T12:54:33;2.30;;;0.30;;
793;SDS011;380;48.738;9.214;2023-11-19T12:56:59;0.35;;;0.15;;
793;SDS011;380;48.738;9.214;2023-11-19T12:59:25;0.60;;;0.25;;
793;SDS011;380;48.738;9.214;2023-11-19T13:01:55;0.55;;;0.20;;
793;SDS011;380;48.738;9.214;2023-11-19T13:04:21;3.67;;;0.50;;
793;SDS011;380;48.738;9.214;2023-11-19T13:06:49;0.43;;;0.17;;
793;SDS011;380;48.738;9.214;2023-11-19T13:09:22;1.05;;;0.35;;
793;SDS011;380;48.738;9.214;2023-11-19T13:11:49;0.98;;;0.30;;
793;SDS011;380;48.738;9.214;2023-11-19T13:14:15;0.30;;;0.10;;
793;SDS011;380;48.738;9.214;2023-11-19T13:16:41;0.70;;;0.30;;
793;SDS011;380;48.738;9.214;2023-11-19T13:19:08;0.88;;;0.43;;
793;SDS011;380;48.738;9.214;2023-11-19T13:21:34;0.45;;;0.20;;
793;SDS011;380;48.738;9.214;2023-11-19T13:24:02;2.08;;;0.55;;
793;SDS011;380;48.738;9.214;2023-11-19T13:26:28;0.85;;;0.28;;
793;SDS011;380;48.738;9.214;2023-11-19T13:28:53;0.73;;;0.30;;
793;SDS011;380;48.738;9.214;2023-11-19T13:31:19;0.73;;;0.30;;
793;SDS011;380;48.738;9.214;2023-11-19T13:33:46;1.42;;;0.38;;
793;SDS011;380;48.738;9.214;2023-11-19T13:36:12;0.45;;;0.20;;
793;SDS011;380;48.738;9.214;2023-11-19T13:38:38;1.48;;;0.45;;
793;SDS011;380;48.738;9.214;2023-11-19T13:41:06;1.20;;;0.43;;
793;SDS011;380;48.738;9.214;2023-11-19T13:43:33;0.10;;;0.10;;
793;SDS011;380;48.738;9.214;2023-11-19T13:45:59;1.88;;;0.30;;
793;SDS011;380;48.738;9.214;2023-11-19T13:48:25;1.60;;;0.40;;
793;SDS011;380;48.738;9.214;2023-11-19T13:50:53;0.75;;;0.20;;
793;SDS011;380;48.738;9.214;2023-11-19T13:53:19;1.63;;;0.47;;
793;SDS011;380;48.738;9.214;2023-11-19T13:55:45;0.65;;;0.30;;
793;SDS011;380;48.738;9.214;2023-11-19T13:58:12;1.85;;;0.40;;
793;SDS011;380;48.738;9.214;2023-11-19T14:00:38;1.25;;;0.40;;
793;SDS011;380;48.738;9.214;2023-11-19T14:03:06;2.22;;;0.47;;
793;SDS011;380;48.738;9.214;2023-11-19T14:05:32;2.22;;;0.25;;
793;SDS011;380;48.738;9.214;2023-11-19T14:07:58;0.85;;;0.38;;
793;SDS011;380;48.738;9.214;2023-11-19T14:10:26;0.55;;;0.25;;
793;SDS011;380;48.738;9.214;2023-11-19T14:12:52;0.90;;;0.30;;
793;SDS011;380;48.738;9.214;2023-11-19T14:15:18;6.90;;;0.57;;
793;SDS011;380;48.738;9.214;2023-11-19T14:17:44;0.52;;;0.20;;
793;SDS011;380;48.738;9.214;2023-11-19T14:20:10;3.20;;;0.35;;
793;SDS011;380;48.738;9.214;2023-11-19T14:22:41;2.42;;;0.30;;
793;SDS011;380;48.738;9.214;2023-11-19T14:25:08;0.40;;;0.20;;
793;SDS011;380;48.738;9.214;2023-11-19T14:27:38;2.15;;;0.47;;
793;SDS011;380;48.738;9.214;2023-11-19T14:30:10;0.45;;;0.30;;
793;SDS011;380;48.738;9.214;2023-11-19T14:32:37;0.45;;;0.20;;
793;SDS011;380;48.738;9.214;2023-11-19T14:35:03;0.77;;;0.40;;
793;SDS011;380;48.738;9.214;2023-11-19T14:37:29;0.52;;;0.20;;
793;SDS011;380;48.738;9.214;2023-11-19T14:39:59;1.27;;;0.35;;
793;SDS011;380;48.738;9.214;2023-11-19T14:42:25;0.55;;;0.25;;
793;SDS011;380;48.738;9.214;2023-11-19T14:44:52;0.65;;;0.30;;
793;SDS011;380;48.738;9.214;2023-11-19T14:47:18;0.50;;;0.28;;
793;SDS011;380;48.738;9.214;2023-11-19T14:49:44;0.17;;;0.10;;
793;SDS011;380;48.738;9.214;2023-11-19T14:52:10;0.75;;;0.43;;
793;SDS011;380;48.738;9.214;2023-11-19T14:54:36;1.05;;;0.50;;
793;SDS011;380;48.738;9.214;2023-11-19T14:57:03;0.75;;;0.50;;
793;SDS011;380;48.738;9.214;2023-11-19T14:59:29;0.52;;;0.20;;
793;SDS011;380;48.738;9.214;2023-11-19T15:01:56;1.05;;;0.40;;
793;SDS011;380;48.738;9.214;2023-11-19T15:04:22;1.58;;;0.70;;
793;SDS011;380;48.738;9.214;2023-11-19T15:06:48;1.67;;;0.60;;
793;SDS011;380;48.738;9.214;2023-11-19T15:09:15;0.98;;;0.47;;
793;SDS011;380;48.738;9.214;2023-11-19T15:11:43;2.65;;;0.70;;
793;SDS011;380;48.738;9.214;2023-11-19T15:14:10;0.47;;;0.20;;
793;SDS011;380;48.738;9.214;2023-11-19T15:16:39;0.47;;;0.28;;
793;SDS011;380;48.738;9.214;2023-11-19T15:19:05;1.00;;;0.47;;
793;SDS011;380;48.738;9.214;2023-11-19T15:21:33;3.72;;;0.35;;
793;SDS011;380;48.738;9.214;2023-11-19T15:23:59;0.93;;;0.35;;
793;SDS011;380;48.738;9.214;2023-11-19T15:26:25;0.52;;;0.17;;
793;SDS011;380;48.738;9.214;2023-11-19T15:29:00;1.73;;;0.50;;
793;SDS011;380;48.738;9.214;2023-11-19T15:31:26;0.85;;;0.35;;
793;SDS011;380;48.738;9.214;2023-11-19T15:33:52;0.52;;;0.20;;
793;SDS011;380;48.738;9.214;2023-11-19T15:36:18;0.77;;;0.40;;
793;SDS011;380;48.738;9.214;2023-11-19T15:38:44;3.00;;;0.70;;
793;SDS011;380;48.738;9.214;2023-11-19T15:41:10;0.63;;;0.22;;
793;SDS011;380;48.738;9.214;2023-11-19T15:43:36;0.95;;;0.38;;
793;SDS011;380;48.738;9.214;2023-11-19T15:46:08;0.60;;;0.30;;
793;SDS011;380;48.738;9.214;2023-11-19T15:48:35;1.60;;;0.40;;
793;SDS011;380;48.738;9.214;2023-11-19T15:51:01;0.55;;;0.30;;
793;SDS011;380;48.738;9.214;2023-11-19T15:53:28;2.03;;;0.40;;
793;SDS011;380;48.738;9.214;2023-11-19T15:55:55;1.52;;;0.50;;
793;SDS011;380;48.738;9.214;2023-11-19T15:58:21;1.17;;;0.38;;
793;SDS011;380;48.738;9.214;2023-11-19T16:00:47;1.02;;;0.30;;
793;SDS011;380;48.738;9.214;2023-11-19T16:03:13;0.90;;;0.30;;
793;SDS011;380;48.738;9.214;2023-11-19T16:05:40;3.38;;;0.63;;
793;SDS011;380;48.738;9.214;2023-11-19T16:08:06;0.90;;;0.43;;
793;SDS011;380;48.738;9.214;2023-11-19T16:10:34;1.25;;;0.40;;
793;SDS011;380;48.738;9.214;2023-11-19T16:13:04;0.77;;;0.40;;
793;SDS011;380;48.738;9.214;2023-11-19T16:15:31;0.60;;;0.30;;
793;SDS011;380;48.738;9.214;2023-11-19T16:17:57;1.73;;;0.60;;
793;SDS011;380;48.738;9.214;2023-11-19T16:20:23;0.93;;;0.38;;
793;SDS011;380;48.738;9.214;2023-11-19T16:22:50;1.05;;;0.40;;
793;SDS011;380;48.738;9.214;2023-11-19T16:25:16;2.38;;;0.57;;
793;SDS011;380;48.738;9.214;2023-11-19T16:27:43;1.13;;;0.50;;
793;SDS011;380;48.738;9.214;2023-11-19T16:30:09;1.27;;;0.60;;
793;SDS011;380;48.738;9.214;2023-11-19T16:32:57;1.13;;;0.47;;
793;SDS011;380;48.738;9.214;2023-11-19T16:35:22;1.45;;;0.85;;
793;SDS011;380;48.738;9.214;2023-11-19T16:37:53;4.45;;;0.80;;
793;SDS011;380;48.738;9.214;2023-11-19T16:40:28;1.23;;;0.60;;
793;SDS011;380;48.738;9.214;2023-11-19T16:42:54;0.90;;;0.40;;
793;SDS011;380;48.738;9.214;2023-11-19T16:45:21;1.38;;;0.40;;
793;SDS011;380;48.738;9.214;2023-11-19T16:47:47;1.92;;;0.80;;
793;SDS011;380;48.738;9.214;2023-11-19T16:50:13;1.70;;;0.80;;
793;SDS011;380;48.738;9.214;2023-11-19T16:52:41;2.72;;;0.82;;
793;SDS011;380;48.738;9.214;2023-11-19T16:55:07;3.58;;;1.80;;
793;SDS011;380;48.738;9.214;2023-11-19T16:57:42;4.55;;;4.03;;
793;SDS011;380;48.738;9.214;2023-11-19T17:00:11;4.93;;;4.13;;
793;SDS011;380;48.738;9.214;2023-11-19T17:02:38;3.95;;;2.53;;
793;SDS011;380;48.738;9.214;2023-11-19T17:05:07;4.05;;;1.45;;
793;SDS011;380;48.738;9.214;2023-11-19T17:07:33;1.95;;;0.65;;
793;SDS011;380;48.738;9.214;2023-11-19T17:09:59;1.50;;;0.52;;
793;SDS011;380;48.738;9.214;2023-11-19T17:12:25;1.50;;;0.65;;
793;SDS011;380;48.738;9.214;2023-11-19T17:14:51;1.60;;;0.73;;
793;SDS011;380;48.738;9.214;2023-11-19T17:17:17;4.72;;;0.98;;
793;SDS011;380;48.738;9.214;2023-11-19T17:19:43;1.77;;;0.90;;
793;SDS011;380;48.738;9.214;2023-11-19T17:22:09;2.90;;;1.10;;
793;SDS011;380;48.738;9.214;2023-11-19T17:24:35;2.58;;;1.48;;
793;SDS011;380;48.738;9.214;2023-11-19T17:27:02;1.92;;;1.10;;
793;SDS011;380;48.738;9.214;2023-11-19T17:29:28;2.03;;;1.15;;
793;SDS011;380;48.738;9.214;2023-11-19T17:31:54;1.75;;;0.95;;
793;SDS011;380;48.738;9.214;2023-11-19T17:34:20;2.90;;;1.60;;
793;SDS011;380;48.738;9.214;2023-11-19T17:36:47;2.97;;;1.08;;
793;SDS011;380;48.738;9.214;2023-11-19T17:39:13;1.85;;;0.90;;
793;SDS011;380;48.738;9.214;2023-11-19T17:41:40;2.42;;;0.82;;
793;SDS011;380;48.738;9.214;2023-11-19T17:44:05;1.27;;;0.47;;
793;SDS011;380;48.738;9.214;2023-11-19T17:46:31;1.98;;;1.08;;
793;SDS011;380;48.738;9.214;2023-11-19T17:48:57;1.25;;;0.50;;
793;SDS011;380;48.738;9.214;2023-11-19T17:51:23;2.47;;;0.93;;
793;SDS011;380;48.738;9.214;2023-11-19T17:53:49;3.65;;;0.70;;
793;SDS011;380;48.738;9.214;2023-11-19T17:56:15;1.48;;;0.77;;
793;SDS011;380;48.738;9.214;2023-11-19T17:58:42;2.13;;;0.70;;
793;SDS011;380;48.738;9.214;2023-11-19T18:01:08;2.08;;;0.80;;
793;SDS011;380;48.738;9.214;2023-11-19T18:03:35;2.05;;;0.85;;
793;SDS011;380;48.738;9.214;2023-11-19T18:06:01;1.98;;;0.63;;
793;SDS011;380;48.738;9.214;2023-11-19T18:08:29;1.55;;;0.70;;
793;SDS011;380;48.738;9.214;2023-11-19T18:10:55;1.52;;;0.77;;
793;SDS011;380;48.738;9.214;2023-11-19T18:13:21;1.20;;;0.70;;
793;SDS011;380;48.738;9.214;2023-11-19T18:15:47;3.83;;;0.95;;
793;SDS011;380;48.738;9.214;2023-11-19T18:18:13;1.27;;;0.60;;
793;SDS011;380;48.738;9.214;2023-11-19T18:20:39;3.55;;;0.80;;
793;SDS011;380;48.738;9.214;2023-11-19T18:23:05;2.35;;;1.00;;
793;SDS011;380;48.738;9.214;2023-11-19T18:25:31;1.42;;;0.70;;
793;SDS011;380;48.738;9.214;2023-11-19T18:27:57;3.20;;;1.40;;
793;SDS011;380;48.738;9.214;2023-11-19T18:30:23;2.45;;;0.90;;
793;SDS011;380;48.738;9.214;2023-11-19T18:32:49;2.00;;;1.25;;
793;SDS011;380;48.738;9.214;2023-11-19T18:35:15;1.58;;;0.90;;
793;SDS011;380;48.738;9.214;2023-11-19T18:37:47;1.75;;;0.90;;
793;SDS011;380;48.738;9.214;2023-11-19T18:40:13;1.27;;;0.60;;
793;SDS011;380;48.738;9.214;2023-11-19T18:42:43;1.77;;;0.68;;
793;SDS011;380;48.738;9.214;2023-11-19T18:45:09;2.38;;;1.17;;
793;SDS011;380;48.738;9.214;2023-11-19T18:47:35;2.35;;;1.05;;
793;SDS011;380;48.738;9.214;2023-11-19T18:50:03;1.58;;;0.85;;
793;SDS011;380;48.738;9.214;2023-11-19T18:52:29;1.58;;;0.90;;
793;SDS011;380;48.738;9.214;2023-11-19T18:54:56;1.80;;;0.93;;
793;SDS011;380;48.738;9.214;2023-11-19T18:57:23;2.28;;;1.17;;
793;SDS011;380;48.738;9.214;2023-11-19T18:59:49;1.83;;;0.90;;
793;SDS011;380;48.738;9.214;2023-11-19T19:02:15;1.58;;;0.80;;
793;SDS011;380;48.738;9.214;2023-11-19T19:04:41;1.45;;;1.00;;
793;SDS011;380;48.738;9.214;2023-11-19T19:07:07;1.90;;;1.02;;
793;SDS011;380;48.738;9.214;2023-11-19T19:09:34;5.30;;;1.50;;
793;SDS011;380;48.738;9.214;2023-11-19T19:12:00;5.03;;;1.00;;
793;SDS011;380;48.738;9.214;2023-11-19T19:14:26;1.48;;;0.88;;
793;SDS011;380;48.738;9.214;2023-11-19T19:16:51;1.58;;;0.93;;
793;SDS011;380;48.738;9.214;2023-11-19T19:19:19;1.60;;;0.77;;
793;SDS011;380;48.738;9.214;2023-11-19T19:21:44;2.60;;;1.30;;
793;SDS011;380;48.738;9.214;2023-11-19T19:24:11;2.67;;;1.50;;
793;SDS011;380;48.738;9.214;2023-11-19T19:26:39;2.00;;;0.95;;
793;SDS011;380;48.738;9.214;2023-11-19T19:29:06;2.65;;;1.42;;
793;SDS011;380;48.738;9.214;2023-11-19T19:31:32;2.67;;;1.17;;
793;SDS011;380;48.738;9.214;2023-11-19T19:33:58;1.77;;;1.13;;
793;SDS011;380;48.738;9.214;2023-11-19T19:36:25;2.22;;;1.27;;
793;SDS011;380;48.738;9.214;2023-11-19T19:38:53;5.30;;;1.33;;
793;SDS011;380;48.738;9.214;2023-11-19T19:41:19;3.35;;;1.10;;
793;SDS011;380;48.738;9.214;2023-11-19T19:43:45;1.92;;;1.15;;
793;SDS011;380;48.738;9.214;2023-11-19T19:46:11;2.70;;;1.40;;
793;SDS011;380;48.738;9.214;2023-11-19T19:48:37;2.05;;;1.15;;
793;SDS011;380;48.738;9.214;2023-11-19T19:51:04;2.60;;;1.30;;
793;SDS011;380;48.738;9.214;2023-11-19T19:53:31;2.38;;;1.38;;
793;SDS011;380;48.738;9.214;2023-11-19T19:55:57;3.88;;;1.92;;
793;SDS011;380;48.738;9.214;2023-11-19T19:58:24;3.35;;;1.27;;
793;SDS011;380;48.738;9.214;2023-11-19T20:00:50;2.58;;;1.58;;
793;SDS011;380;48.738;9.214;2023-11-19T20:03:16;2.83;;;0.90;;
793;SDS011;380;48.738;9.214;2023-11-19T20:05:43;2.08;;;1.02;;
793;SDS011;380;48.738;9.214;2023-11-19T20:08:09;1.75;;;0.88;;
793;SDS011;380;48.738;9.214;2023-11-19T20:10:35;1.70;;;0.77;;
793;SDS011;380;48.738;9.214;2023-11-19T20:13:04;3.80;;;0.80;;
793;SDS011;380;48.738;9.214;2023-11-19T20:15:37;2.55;;;0.90;;
793;SDS011;380;48.738;9.214;2023-11-19T20:18:04;2.55;;;1.30;;
793;SDS011;380;48.738;9.214;2023-11-19T20:20:38;3.10;;;1.33;;
793;SDS011;380;48.738;9.214;2023-11-19T20:23:06;2.20;;;0.95;;
793;SDS011;380;48.738;9.214;2023-11-19T20:25:32;2.38;;;1.02;;
793;SDS011;380;48.738;9.214;2023-11-19T20:27:58;2.25;;;1.02;;
793;SDS011;380;48.738;9.214;2023-11-19T20:30:24;2.92;;;1.52;;
793;SDS011;380;48.738;9.214;2023-11-19T20:32:50;2.75;;;1.23;;
793;SDS011;380;48.738;9.214;2023-11-19T20:35:16;2.60;;;0.93;;
793;SDS011;380;48.738;9.214;2023-11-19T20:37:43;1.95;;;0.57;;
793;SDS011;380;48.738;9.214;2023-11-19T20:40:09;2.50;;;1.17;;
793;SDS011;380;48.738;9.214;2023-11-19T20:42:36;3.15;;;1.15;;
793;SDS011;380;48.738;9.214;2023-11-19T20:45:03;4.28;;;0.90;;
793;SDS011;380;48.738;9.214;2023-11-19T20:47:29;2.30;;;1.08;;
793;SDS011;380;48.738;9.214;2023-11-19T20:49:55;1.80;;;1.15;;
793;SDS011;380;48.738;9.214;2023-11-19T20:52:21;2.22;;;0.93;;
793;SDS011;380;48.738;9.214;2023-11-19T20:54:47;1.65;;;1.05;;
793;SDS011;380;48.738;9.214;2023-11-19T20:57:13;2.35;;;1.00;;
793;SDS011;380;48.738;9.214;2023-11-19T20:59:39;1.88;;;0.80;;
793;SDS011;380;48.738;9.214;2023-11-19T21:02:06;2.78;;;1.38;;
793;SDS011;380;48.738;9.214;2023-11-19T21:04:32;6.28;;;1.15;;
793;SDS011;380;48.738;9.214;2023-11-19T21:07:01;1.55;;;0.80;;
793;SDS011;380;48.738;9.214;2023-11-19T21:09:27;2.30;;;1.27;;
793;SDS011;380;48.738;9.214;2023-11-19T21:11:53;2.78;;;0.90;;
793;SDS011;380;48.738;9.214;2023-11-19T21:14:19;2.92;;;1.33;;
793;SDS011;380;48.738;9.214;2023-11-19T21:16:45;3.97;;;1.65;;
793;SDS011;380;48.738;9.214;2023-11-19T21:19:11;5.78;;;1.20;;
793;SDS011;380;48.738;9.214;2023-11-19T21:21:37;3.25;;;1.13;;
793;SDS011;380;48.738;9.214;2023-11-19T21:24:03;5.15;;;2.05;;
793;SDS011;380;48.738;9.214;2023-11-19T21:26:29;3.80;;;1.83;;
793;SDS011;380;48.738;9.214;2023-11-19T21:28:55;3.78;;;1.40;;
793;SDS011;380;48.738;9.214;2023-11-19T21:31:21;6.65;;;1.63;;
793;SDS011;380;48.738;9.214;2023-11-19T21:33:47;5.25;;;1.63;;
793;SDS011;380;48.738;9.214;2023-11-19T21:36:13;6.07;;;1.52;;
793;SDS011;380;48.738;9.214;2023-11-19T21:38:38;5.38;;;1.38;;
793;SDS011;380;48.738;9.214;2023-11-19T21:41:04;4.47;;;1.27;;
793;SDS011;380;48.738;9.214;2023-11-19T21:43:31;5.40;;;1.48;;
793;SDS011;380;48.738;9.214;2023-11-19T21:45:58;8.50;;;1.38;;
793;SDS011;380;48.738;9.214;2023-11-19T21:48:24;7.38;;;2.33;;
793;SDS011;380;48.738;9.214;2023-11-19T21:50:51;5.50;;;1.80;;
793;SDS011;380;48.738;9.214;2023-11-19T21:53:17;3.05;;;1.52;;
793;SDS011;380;48.738;9.214;2023-11-19T21:55:43;5.88;;;1.48;;
793;SDS011;380;48.738;9.214;2023-11-19T21:58:09;5.50;;;1.38;;
793;SDS011;380;48.738;9.214;2023-11-19T22:00:34;9.00;;;1.95;;
793;SDS011;380;48.738;9.214;2023-11-19T22:03:00;7.88;;;2.10;;
793;SDS011;380;48.738;9.214;2023-11-19T22:05:27;5.75;;;1.95;;
793;SDS011;380;48.738;9.214;2023-11-19T22:07:53;10.75;;;1.95;;
793;SDS011;380;48.738;9.214;2023-11-19T22:10:19;6.45;;;1.08;;
793;SDS011;380;48.738;9.214;2023-11-19T22:12:45;3.63;;;1.40;;
793;SDS011;380;48.738;9.214;2023-11-19T22:15:11;3.83;;;1.63;;
793;SDS011;380;48.738;9.214;2023-11-19T22:17:37;4.45;;;1.65;;
793;SDS011;380;48.738;9.214;2023-11-19T22:20:06;4.70;;;1.73;;
793;SDS011;380;48.738;9.214;2023-11-19T22:22:32;6.05;;;1.40;;
793;SDS011;380;48.738;9.214;2023-11-19T22:24:58;6.95;;;2.33;;
793;SDS011;380;48.738;9.214;2023-11-19T22:27:25;2.55;;;1.30;;
793;SDS011;380;48.738;9.214;2023-11-19T22:29:51;4.57;;;1.30;;
793;SDS011;380;48.738;9.214;2023-11-19T22:32:17;3.95;;;1.20;;
793;SDS011;380;48.738;9.214;2023-11-19T22:34:42;7.30;;;1.63;;
793;SDS011;380;48.738;9.214;2023-11-19T22:37:09;2.78;;;1.27;;
793;SDS011;380;48.738;9.214;2023-11-19T22:39:34;4.10;;;1.00;;
793;SDS011;380;48.738;9.214;2023-11-19T22:42:01;5.18;;;1.48;;
793;SDS011;380;48.738;9.214;2023-11-19T22:44:26;5.72;;;1.25;;
793;SDS011;380;48.738;9.214;2023-11-19T22:46:53;6.75;;;1.70;;
793;SDS011;380;48.738;9.214;2023-11-19T22:49:19;7.80;;;1.70;;
793;SDS011;380;48.738;9.214;2023-11-19T22:51:45;6.13;;;2.20;;
793;SDS011;380;48.738;9.214;2023-11-19T22:54:12;7.05;;;1.63;;
793;SDS011;380;48.738;9.214;2023-11-19T22:56:38;7.60;;;1.73;;
793;SDS011;380;48.738;9.214;2023-11-19T22:59:04;3.72;;;1.98;;
793;SDS011;380;48.738;9.214;2023-11-19T23:01:30;4.63;;;2.13;;
793;SDS011;380;48.738;9.214;2023-11-19T23:03:58;6.22;;;1.48;;
793;SDS011;380;48.738;9.214;2023-11-19T23:06:24;5.25;;;1.75;;
793;SDS011;380;48.738;9.214;2023-11-19T23:08:50;16.23;;;2.15;;
793;SDS011;380;48.738;9.214;2023-11-19T23:11:16;1.65;;;0.82;;
793;SDS011;380;48.738;9.214;2023-11-19T23:13:43;4.15;;;1.35;;
793;SDS011;380;48.738;9.214;2023-11-19T23:16:09;8.02;;;1.85;;
793;SDS011;380;48.738;9.214;2023-11-19T23:18:37;8.10;;;1.65;;
793;SDS011;380;48.738;9.214;2023-11-19T23:21:03;8.85;;;2.08;;
793;SDS011;380;48.738;9.214;2023-11-19T23:23:29;3.30;;;1.33;;
793;SDS011;380;48.738;9.214;2023-11-19T23:25:55;5.28;;;2.47;;
793;SDS011;380;48.738;9.214;2023-11-19T23:28:22;3.55;;;1.30;;
793;SDS011;380;48.738;9.214;2023-11-19T23:30:48;9.13;;;1.63;;
793;SDS011;380;48.738;9.214;2023-11-19T23:33:14;5.30;;;1.73;;
793;SDS011;380;48.738;9.214;2023-11-19T23:35:40;3.17;;;1.08;;
793;SDS011;380;48.738;9.214;2023-11-19T23:38:06;7.55;;;1.80;;
793;SDS011;380;48.738;9.214;2023-11-19T23:40:33;4.20;;;1.30;;
793;SDS011;380;48.738;9.214;2023-11-19T23:42:59;3.90;;;1.67;;
793;SDS011;380;48.738;9.214;2023-11-19T23:45:24;1.50;;;0.73;;
793;SDS011;380;48.738;9.214;2023-11-19T23:47:50;4.85;;;1.35;;
793;SDS011;380;48.738;9.214;2023-11-19T23:50:17;3.60;;;1.40;;
793;SDS011;380;48.738;9.214;2023-11-19T23:52:43;3.85;;;1.27;;
793;SDS011;380;48.738;9.214;2023-11-19T23:55:09;6.00;;;2.20;;
793;SDS011;380;48.738;9.214;2023-11-19T23:57:36;3.00;;;1.50;;
